createdAt,value
2023-04-26T00:01:18.096Z,24.77
2023-04-26T00:03:44.633Z,24.76
2023-04-26T00:06:13.987Z,24.74
2023-04-26T00:08:42.182Z,24.71
2023-04-26T00:11:08.554Z,24.68
2023-04-26T00:13:35.028Z,24.64
2023-04-26T00:16:01.544Z,24.61
2023-04-26T00:18:28.234Z,24.56
2023-04-26T00:20:54.677Z,24.54
2023-04-26T00:23:21.084Z,24.51
2023-04-26T00:25:47.511Z,24.47
2023-04-26T00:28:13.906Z,24.43
2023-04-26T00:30:42.098Z,24.37
2023-04-26T00:33:09.330Z,24.31
2023-04-26T00:35:35.716Z,24.25
2023-04-26T00:38:02.080Z,24.21
2023-04-26T00:40:28.528Z,24.15
2023-04-26T00:42:58.346Z,24.09
2023-04-26T00:45:24.716Z,24.05
2023-04-26T00:47:51.280Z,23.99
2023-04-26T00:50:17.944Z,23.96
2023-04-26T00:52:47.116Z,23.94
2023-04-26T00:55:18.622Z,23.90
2023-04-26T00:57:45.765Z,23.88
2023-04-26T01:00:12.744Z,23.85
2023-04-26T01:02:39.366Z,23.81
2023-04-26T01:05:06.931Z,23.78
2023-04-26T01:07:33.478Z,23.76
2023-04-26T01:10:04.859Z,23.75
2023-04-26T01:12:32.151Z,23.70
2023-04-26T01:14:59.902Z,23.70
2023-04-26T01:17:26.441Z,23.68
2023-04-26T01:19:52.840Z,23.67
2023-04-26T01:22:19.240Z,23.65
2023-04-26T01:24:50.063Z,23.65
2023-04-26T01:27:16.801Z,23.67
2023-04-26T01:29:43.420Z,23.70
2023-04-26T01:32:09.800Z,23.74
2023-04-26T01:34:37.210Z,23.75
2023-04-26T01:37:03.681Z,23.75
2023-04-26T01:39:30.254Z,23.74
2023-04-26T01:41:58.471Z,23.71
2023-04-26T01:44:24.834Z,23.72
2023-04-26T01:46:51.821Z,23.72
2023-04-26T01:49:18.238Z,23.73
2023-04-26T01:51:46.785Z,23.70
2023-04-26T01:54:13.254Z,23.70
2023-04-26T01:56:40.001Z,23.69
2023-04-26T01:59:06.548Z,23.68
2023-04-26T02:01:32.970Z,23.66
2023-04-26T02:03:59.409Z,23.65
2023-04-26T02:06:26.497Z,23.63
2023-04-26T02:08:54.241Z,23.60
2023-04-26T02:11:21.148Z,23.57
2023-04-26T02:13:47.643Z,23.53
2023-04-26T02:16:16.407Z,23.49
2023-04-26T02:18:42.828Z,23.47
2023-04-26T02:21:11.651Z,23.45
2023-04-26T02:23:38.028Z,23.43
2023-04-26T02:26:04.715Z,23.42
2023-04-26T02:28:31.483Z,23.40
2023-04-26T02:30:58.412Z,23.39
2023-04-26T02:33:24.804Z,23.38
2023-04-26T02:35:51.405Z,23.37
2023-04-26T02:38:18.798Z,23.36
2023-04-26T02:40:45.424Z,23.35
2023-04-26T02:43:12.760Z,23.33
2023-04-26T02:45:43.273Z,23.29
2023-04-26T02:48:11.693Z,23.30
2023-04-26T02:50:38.649Z,23.34
2023-04-26T02:53:05.551Z,23.36
2023-04-26T02:55:32.227Z,23.39
2023-04-26T02:57:58.726Z,23.39
2023-04-26T03:00:25.429Z,23.42
2023-04-26T03:02:52.073Z,23.44
2023-04-26T03:05:19.922Z,23.43
2023-04-26T03:07:46.437Z,23.43
2023-04-26T03:10:17.082Z,23.42
2023-04-26T03:12:43.866Z,23.40
2023-04-26T03:15:10.631Z,23.38
2023-04-26T03:17:39.151Z,23.38
2023-04-26T03:20:07.085Z,23.39
2023-04-26T03:22:34.026Z,23.38
2023-04-26T03:25:01.174Z,23.36
2023-04-26T03:27:28.536Z,23.34
2023-04-26T03:29:55.452Z,23.36
2023-04-26T03:32:21.954Z,23.33
2023-04-26T03:34:49.767Z,23.32
2023-04-26T03:37:16.250Z,23.28
2023-04-26T03:39:45.066Z,23.25
2023-04-26T03:42:11.443Z,23.24
2023-04-26T03:44:38.373Z,23.21
2023-04-26T03:47:05.456Z,23.21
2023-04-26T03:49:32.309Z,23.19
2023-04-26T03:52:02.387Z,23.17
2023-04-26T03:54:29.432Z,23.16
2023-04-26T03:56:55.850Z,23.14
2023-04-26T03:59:22.349Z,23.13
2023-04-26T04:01:48.829Z,23.13
2023-04-26T04:04:15.685Z,23.13
2023-04-26T04:06:43.202Z,23.12
2023-04-26T04:09:09.589Z,23.09
2023-04-26T04:11:35.995Z,23.12
2023-04-26T04:14:02.898Z,23.14
2023-04-26T04:16:29.380Z,23.18
2023-04-26T04:18:56.003Z,23.20
2023-04-26T04:21:22.409Z,23.22
2023-04-26T04:23:50.057Z,23.25
2023-04-26T04:26:17.423Z,23.26
2023-04-26T04:28:45.443Z,23.26
2023-04-26T04:31:12.917Z,23.25
2023-04-26T04:33:39.437Z,23.25
2023-04-26T04:36:07.185Z,23.25
2023-04-26T04:38:33.645Z,23.25
2023-04-26T04:41:00.073Z,23.24
2023-04-26T04:43:27.910Z,23.24
2023-04-26T04:45:54.333Z,23.22
2023-04-26T04:48:21.295Z,23.21
2023-04-26T04:50:49.408Z,23.21
2023-04-26T04:53:16.045Z,23.21
2023-04-26T04:55:42.453Z,23.20
2023-04-26T04:58:10.812Z,23.18
2023-04-26T05:00:37.964Z,23.18
2023-04-26T05:03:34.012Z,23.17
2023-04-26T05:06:02.565Z,23.15
2023-04-26T05:08:28.986Z,23.14
2023-04-26T05:10:59.141Z,23.13
2023-04-26T05:13:25.664Z,23.12
2023-04-26T05:15:52.146Z,23.11
2023-04-26T05:18:18.593Z,23.10
2023-04-26T05:20:44.964Z,23.09
2023-04-26T05:23:11.421Z,23.08
2023-04-26T05:25:38.025Z,23.06
2023-04-26T05:28:21.942Z,23.02
2023-04-26T05:31:02.561Z,23.04
2023-04-26T05:33:46.528Z,23.08
2023-04-26T05:36:19.414Z,23.08
2023-04-26T05:38:45.777Z,23.12
2023-04-26T05:41:12.158Z,23.14
2023-04-26T05:43:38.658Z,23.12
2023-04-26T05:46:05.550Z,23.12
2023-04-26T05:48:32.029Z,23.13
2023-04-26T05:50:58.380Z,23.15
2023-04-26T05:53:24.747Z,23.14
2023-04-26T05:55:51.638Z,23.13
2023-04-26T05:58:18.085Z,23.13
2023-04-26T06:00:45.418Z,23.11
2023-04-26T06:03:12.761Z,23.13
2023-04-26T06:05:39.501Z,23.12
2023-04-26T06:08:06.108Z,23.12
2023-04-26T06:10:32.719Z,23.12
2023-04-26T06:12:59.375Z,23.11
2023-04-26T06:15:27.812Z,23.09
2023-04-26T06:17:55.015Z,23.07
2023-04-26T06:20:21.848Z,23.08
2023-04-26T06:22:48.276Z,23.06
2023-04-26T06:25:15.282Z,23.06
2023-04-26T06:27:41.861Z,23.05
2023-04-26T06:30:10.018Z,23.03
2023-04-26T06:32:43.119Z,23.00
2023-04-26T06:35:09.938Z,22.99
2023-04-26T06:37:37.586Z,22.98
2023-04-26T06:40:04.857Z,22.99
2023-04-26T06:42:31.414Z,22.97
2023-04-26T06:45:22.481Z,22.95
2023-04-26T06:47:51.542Z,22.93
2023-04-26T06:50:18.231Z,22.93
2023-04-26T06:52:44.622Z,22.96
2023-04-26T06:55:11.059Z,22.96
2023-04-26T06:57:37.447Z,22.99
2023-04-26T07:00:04.591Z,23.01
2023-04-26T07:02:31.523Z,23.02
2023-04-26T07:04:58.289Z,23.04
2023-04-26T07:07:24.806Z,23.05
2023-04-26T07:09:52.792Z,23.04
2023-04-26T07:12:19.213Z,23.04
2023-04-26T07:14:45.817Z,23.04
2023-04-26T07:17:12.273Z,23.03
2023-04-26T07:19:38.712Z,23.01
2023-04-26T07:22:08.948Z,23.01
2023-04-26T07:24:35.390Z,22.98
2023-04-26T07:27:01.981Z,22.98
2023-04-26T07:29:28.554Z,22.95
2023-04-26T07:31:55.711Z,22.91
2023-04-26T07:34:22.060Z,22.90
2023-04-26T07:36:48.438Z,22.88
2023-04-26T07:39:15.392Z,22.87
2023-04-26T07:41:43.844Z,22.86
2023-04-26T07:44:11.113Z,22.84
2023-04-26T07:46:37.489Z,22.83
2023-04-26T07:49:04.179Z,22.82
2023-04-26T07:51:30.639Z,22.84
2023-04-26T07:53:57.065Z,22.84
2023-04-26T07:56:24.264Z,22.86
2023-04-26T07:58:50.834Z,22.87
2023-04-26T08:01:17.214Z,22.86
2023-04-26T08:03:43.689Z,22.85
2023-04-26T08:06:10.584Z,22.87
2023-04-26T08:08:42.818Z,22.89
2023-04-26T08:11:10.069Z,22.92
2023-04-26T08:13:36.690Z,22.92
2023-04-26T08:16:03.135Z,22.94
2023-04-26T08:18:29.549Z,22.97
2023-04-26T08:20:55.886Z,23.01
2023-04-26T08:23:22.826Z,23.02
2023-04-26T08:25:49.789Z,23.04
2023-04-26T08:28:16.349Z,23.04
2023-04-26T08:30:43.570Z,23.05
2023-04-26T08:33:10.384Z,23.06
2023-04-26T08:35:36.914Z,23.06
2023-04-26T08:38:03.344Z,23.06
2023-04-26T08:40:29.934Z,23.05
2023-04-26T08:42:56.345Z,23.06
2023-04-26T08:45:23.368Z,23.07
2023-04-26T08:47:51.672Z,23.06
2023-04-26T08:50:23.151Z,23.07
2023-04-26T08:52:52.181Z,23.06
2023-04-26T08:55:20.199Z,23.05
2023-04-26T08:57:48.187Z,23.05
2023-04-26T09:00:15.926Z,23.05
2023-04-26T09:02:46.507Z,23.05
2023-04-26T09:05:13.702Z,23.05
2023-04-26T09:07:47.791Z,23.05
2023-04-26T09:10:21.759Z,23.06
2023-04-26T09:12:53.239Z,23.06
2023-04-26T09:15:22.674Z,23.06
2023-04-26T09:17:49.917Z,23.05
2023-04-26T09:20:21.653Z,23.04
2023-04-26T09:22:49.857Z,23.02
2023-04-26T09:25:18.483Z,22.99
2023-04-26T09:27:45.818Z,22.99
2023-04-26T09:30:17.273Z,23.01
2023-04-26T09:32:56.538Z,23.06
2023-04-26T09:35:36.862Z,23.07
2023-04-26T09:38:14.111Z,23.10
2023-04-26T09:40:48.920Z,23.10
2023-04-26T09:43:19.915Z,23.08
2023-04-26T09:45:57.767Z,23.08
2023-04-26T09:48:30.612Z,23.08
2023-04-26T09:50:59.009Z,23.02
2023-04-26T09:53:29.013Z,23.01
2023-04-26T09:55:57.286Z,23.04
2023-04-26T09:58:23.890Z,23.02
2023-04-26T10:00:51.982Z,23.02
2023-04-26T10:03:23.125Z,22.98
2023-04-26T10:05:49.806Z,22.99
2023-04-26T10:08:16.496Z,22.97
2023-04-26T10:10:43.850Z,22.95
2023-04-26T10:13:11.557Z,22.97
2023-04-26T10:15:39.639Z,23.00
2023-04-26T10:18:06.214Z,23.06
2023-04-26T10:20:32.586Z,23.03
2023-04-26T10:23:01.492Z,23.07
2023-04-26T10:25:39.174Z,23.10
2023-04-26T10:28:10.735Z,23.13
2023-04-26T10:30:55.670Z,23.14
2023-04-26T10:33:23.805Z,23.13
2023-04-26T10:36:04.060Z,23.13
2023-04-26T10:38:31.349Z,23.13
2023-04-26T10:41:38.446Z,23.15
2023-04-26T10:44:40.632Z,23.14
2023-04-26T10:47:20.675Z,23.15
2023-04-26T10:49:48.135Z,23.18
2023-04-26T10:52:16.770Z,23.21
2023-04-26T10:54:57.166Z,23.25
2023-04-26T10:57:43.169Z,23.26
2023-04-26T11:00:17.119Z,23.30
2023-04-26T11:02:52.366Z,23.27
2023-04-26T11:05:53.990Z,23.26
2023-04-26T11:08:24.824Z,23.27
2023-04-26T11:10:57.458Z,23.30
2023-04-26T11:13:26.996Z,23.32
2023-04-26T11:15:55.054Z,23.34
2023-04-26T11:18:22.182Z,23.36
2023-04-26T11:20:48.867Z,23.36
2023-04-26T11:23:17.758Z,23.36
2023-04-26T11:25:44.223Z,23.37
2023-04-26T11:28:12.009Z,23.35
2023-04-26T11:30:38.382Z,23.33
2023-04-26T11:33:05.221Z,23.31
2023-04-26T11:35:35.916Z,23.29
2023-04-26T11:38:05.405Z,23.28
2023-04-26T11:40:33.429Z,23.26
2023-04-26T11:43:06.645Z,23.25
2023-04-26T11:45:34.904Z,23.21
2023-04-26T11:48:03.271Z,23.19
2023-04-26T11:50:32.100Z,23.16
2023-04-26T11:53:00.974Z,23.09
2023-04-26T11:55:28.501Z,23.04
2023-04-26T11:57:55.347Z,23.00
2023-04-26T12:00:22.256Z,23.02
2023-04-26T12:02:49.456Z,23.07
2023-04-26T12:05:25.573Z,23.11
2023-04-26T12:07:57.202Z,23.15
2023-04-26T12:10:29.147Z,23.20
2023-04-26T12:12:58.511Z,23.23
2023-04-26T12:15:38.770Z,23.25
2023-04-26T12:18:10.654Z,23.27
2023-04-26T12:20:43.519Z,23.30
2023-04-26T12:23:15.425Z,23.32
2023-04-26T12:25:52.469Z,23.34
2023-04-26T12:28:19.042Z,23.35
2023-04-26T12:30:45.415Z,23.36
2023-04-26T12:33:17.762Z,23.38
2023-04-26T12:35:44.659Z,23.39
2023-04-26T12:38:12.310Z,23.37
2023-04-26T12:40:39.085Z,23.37
2023-04-26T12:43:05.457Z,23.37
2023-04-26T12:45:31.911Z,23.40
2023-04-26T12:47:58.360Z,23.44
2023-04-26T12:50:24.867Z,23.46
2023-04-26T12:52:51.493Z,23.44
2023-04-26T12:55:18.580Z,23.45
2023-04-26T12:57:45.880Z,23.43
2023-04-26T13:00:14.413Z,23.42
2023-04-26T13:02:41.614Z,23.42
2023-04-26T13:05:09.261Z,23.40
2023-04-26T13:07:37.775Z,23.39
2023-04-26T13:10:05.074Z,23.36
2023-04-26T13:12:31.828Z,23.33
2023-04-26T13:14:58.198Z,23.30
2023-04-26T13:17:25.794Z,23.26
2023-04-26T13:19:52.937Z,23.22
2023-04-26T13:22:20.876Z,23.22
2023-04-26T13:24:47.528Z,23.25
2023-04-26T13:27:14.066Z,23.30
2023-04-26T13:29:41.030Z,23.34
2023-04-26T13:32:08.244Z,23.38
2023-04-26T13:34:35.666Z,23.40
2023-04-26T13:37:03.831Z,23.41
2023-04-26T13:39:31.128Z,23.43
2023-04-26T13:41:59.486Z,23.44
2023-04-26T13:44:26.894Z,23.44
2023-04-26T13:46:55.361Z,23.42
2023-04-26T13:49:22.858Z,23.41
2023-04-26T13:51:49.289Z,23.39
2023-04-26T13:54:15.676Z,23.36
2023-04-26T13:56:42.048Z,23.34
2023-04-26T13:59:08.425Z,23.33
2023-04-26T14:01:36.071Z,23.32
2023-04-26T14:04:04.383Z,23.34
2023-04-26T14:06:32.541Z,23.35
2023-04-26T14:08:59.349Z,23.37
2023-04-26T14:11:25.961Z,23.38
2023-04-26T14:13:55.981Z,23.42
2023-04-26T14:16:23.584Z,23.42
2023-04-26T14:18:50.211Z,23.42
2023-04-26T14:21:16.706Z,23.42
2023-04-26T14:23:43.098Z,23.42
2023-04-26T14:26:10.608Z,23.41
2023-04-26T14:28:37.035Z,23.42
2023-04-26T14:31:03.579Z,23.44
2023-04-26T14:33:29.973Z,23.44
2023-04-26T14:35:56.445Z,23.44
2023-04-26T14:38:22.856Z,23.44
2023-04-26T14:40:49.231Z,23.46
2023-04-26T14:43:15.806Z,23.48
2023-04-26T14:45:44.558Z,23.50
2023-04-26T14:48:12.320Z,23.57
2023-04-26T14:50:38.897Z,23.65
2023-04-26T14:53:05.318Z,23.75
2023-04-26T14:55:32.325Z,23.82
2023-04-26T14:57:58.937Z,23.90
2023-04-26T15:00:26.014Z,23.96
2023-04-26T15:02:52.584Z,23.98
2023-04-26T15:05:24.127Z,24.01
2023-04-26T15:07:51.720Z,24.06
2023-04-26T15:10:18.074Z,24.07
2023-04-26T15:12:44.617Z,24.13
2023-04-26T15:15:11.435Z,24.17
2023-04-26T15:17:37.877Z,24.18
2023-04-26T15:20:06.225Z,24.19
2023-04-26T15:22:34.840Z,24.22
2023-04-26T15:25:03.153Z,24.22
2023-04-26T15:27:29.545Z,24.23
2023-04-26T15:29:56.673Z,24.26
2023-04-26T15:32:23.044Z,24.28
2023-04-26T15:34:49.736Z,24.29
2023-04-26T15:37:16.126Z,24.31
2023-04-26T15:39:42.604Z,24.31
2023-04-26T15:42:09.006Z,24.34
2023-04-26T15:44:35.617Z,24.36
2023-04-26T15:47:02.424Z,24.40
2023-04-26T15:49:28.984Z,24.42
2023-04-26T15:51:55.432Z,24.45
2023-04-26T15:54:22.121Z,24.48
2023-04-26T15:56:48.662Z,24.50
2023-04-26T15:59:15.221Z,24.55
2023-04-26T16:01:41.668Z,24.60
2023-04-26T16:04:08.865Z,24.63
2023-04-26T16:06:35.616Z,24.67
2023-04-26T16:09:17.189Z,24.69
2023-04-26T16:11:50.308Z,24.71
2023-04-26T16:14:16.687Z,24.71
2023-04-26T16:16:44.329Z,24.71
2023-04-26T16:19:10.821Z,24.69
2023-04-26T16:21:39.566Z,24.69
2023-04-26T16:24:08.717Z,24.69
2023-04-26T16:26:35.351Z,24.72
2023-04-26T16:29:01.789Z,24.74
2023-04-26T16:31:28.218Z,24.73
2023-04-26T16:33:54.777Z,24.73
2023-04-26T16:36:21.309Z,24.74
2023-04-26T16:38:47.680Z,24.73
2023-04-26T16:41:14.026Z,24.76
2023-04-26T16:43:40.565Z,24.79
2023-04-26T16:46:08.017Z,24.81
2023-04-26T16:48:36.426Z,24.82
2023-04-26T16:51:07.113Z,24.86
2023-04-26T16:53:34.445Z,24.89
2023-04-26T16:56:00.922Z,24.92
2023-04-26T16:58:27.421Z,24.94
2023-04-26T17:01:00.154Z,24.94
2023-04-26T17:03:27.058Z,24.94
2023-04-26T17:05:53.636Z,24.93
2023-04-26T17:08:20.062Z,24.94
2023-04-26T17:10:46.968Z,24.94
2023-04-26T17:13:13.597Z,24.97
2023-04-26T17:15:41.291Z,24.96
2023-04-26T17:18:08.964Z,24.98
2023-04-26T17:20:35.949Z,24.99
2023-04-26T17:23:04.175Z,24.99
2023-04-26T17:25:31.187Z,25.00
2023-04-26T17:27:57.692Z,24.99
2023-04-26T17:30:24.206Z,25.00
2023-04-26T17:32:50.713Z,25.00
2023-04-26T17:35:17.208Z,25.00
2023-04-26T17:37:46.114Z,25.00
2023-04-26T17:40:12.892Z,25.01
2023-04-26T17:42:39.291Z,24.99
2023-04-26T17:45:06.685Z,25.00
2023-04-26T17:47:33.344Z,25.00
2023-04-26T17:49:59.840Z,25.01
2023-04-26T17:52:26.811Z,25.00
2023-04-26T17:54:54.382Z,24.99
2023-04-26T17:57:22.978Z,25.00
2023-04-26T17:59:53.242Z,24.99
2023-04-26T18:02:19.767Z,24.99
2023-04-26T18:04:49.095Z,24.98
2023-04-26T18:07:15.995Z,24.98
2023-04-26T18:09:42.406Z,24.97
2023-04-26T18:12:09.074Z,24.96
2023-04-26T18:14:35.575Z,24.96
2023-04-26T18:17:03.771Z,24.97
2023-04-26T18:19:30.729Z,24.97
2023-04-26T18:21:57.096Z,24.97
2023-04-26T18:24:23.539Z,24.96
2023-04-26T18:26:49.906Z,24.97
2023-04-26T18:29:16.355Z,24.96
2023-04-26T18:31:42.773Z,24.97
2023-04-26T18:34:11.294Z,24.95
2023-04-26T18:36:37.798Z,24.95
2023-04-26T18:39:04.589Z,24.95
2023-04-26T18:41:30.975Z,24.95
2023-04-26T18:43:57.353Z,24.94
2023-04-26T18:46:23.815Z,24.95
2023-04-26T18:48:50.220Z,24.96
2023-04-26T18:51:16.646Z,24.94
2023-04-26T18:53:43.042Z,24.93
2023-04-26T18:56:09.468Z,24.93
2023-04-26T18:58:36.614Z,24.93
2023-04-26T19:01:03.064Z,24.93
2023-04-26T19:03:29.529Z,24.92
2023-04-26T19:05:55.942Z,24.92
2023-04-26T19:08:22.291Z,24.92
2023-04-26T19:10:48.848Z,24.91
2023-04-26T19:13:15.406Z,24.91
2023-04-26T19:15:41.817Z,24.91
2023-04-26T19:18:08.395Z,24.92
2023-04-26T19:20:35.203Z,24.91
2023-04-26T19:23:01.653Z,24.90
2023-04-26T19:25:30.337Z,24.89
2023-04-26T19:27:56.907Z,24.87
2023-04-26T19:30:23.315Z,24.87
2023-04-26T19:32:49.759Z,24.88
2023-04-26T19:35:16.149Z,24.87
2023-04-26T19:37:42.502Z,24.90
2023-04-26T19:40:10.142Z,24.91
2023-04-26T19:42:36.520Z,24.93
2023-04-26T19:45:03.043Z,24.95
2023-04-26T19:47:29.470Z,24.97
2023-04-26T19:49:57.588Z,25.00
2023-04-26T19:52:23.997Z,25.02
2023-04-26T19:54:55.734Z,25.05
2023-04-26T19:57:22.553Z,25.05
2023-04-26T19:59:48.926Z,25.05
2023-04-26T20:02:15.389Z,25.07
2023-04-26T20:04:42.664Z,25.08
2023-04-26T20:07:09.167Z,25.08
2023-04-26T20:09:35.820Z,25.09
2023-04-26T20:12:02.197Z,25.09
2023-04-26T20:14:30.149Z,25.10
2023-04-26T20:16:56.612Z,25.11
2023-04-26T20:19:23.393Z,25.13
2023-04-26T20:21:49.821Z,25.12
2023-04-26T20:24:16.311Z,25.12
2023-04-26T20:26:42.725Z,25.13
2023-04-26T20:29:09.400Z,25.12
2023-04-26T20:31:36.155Z,25.12
2023-04-26T20:34:02.636Z,25.11
2023-04-26T20:36:29.034Z,25.12
2023-04-26T20:38:55.821Z,25.12
2023-04-26T20:41:22.207Z,25.11
2023-04-26T20:43:49.086Z,25.12
2023-04-26T20:46:16.181Z,25.11
2023-04-26T20:48:42.579Z,25.11
2023-04-26T20:51:08.960Z,25.12
2023-04-26T20:53:35.319Z,25.15
2023-04-26T20:56:01.679Z,25.14
2023-04-26T20:58:29.646Z,25.16
2023-04-26T21:00:56.027Z,25.19
2023-04-26T21:03:22.563Z,25.21
2023-04-26T21:05:49.255Z,25.24
2023-04-26T21:08:15.666Z,25.26
2023-04-26T21:10:42.016Z,25.26
2023-04-26T21:13:09.226Z,25.28
2023-04-26T21:15:35.705Z,25.28
2023-04-26T21:18:02.945Z,25.30
2023-04-26T21:20:29.385Z,25.30
2023-04-26T21:22:55.893Z,25.31
2023-04-26T21:25:22.681Z,25.31
2023-04-26T21:27:51.137Z,25.30
2023-04-26T21:30:17.756Z,25.31
2023-04-26T21:32:44.162Z,25.31
2023-04-26T21:35:13.372Z,25.33
2023-04-26T21:37:39.730Z,25.34
2023-04-26T21:40:07.953Z,25.36
2023-04-26T21:42:34.437Z,25.39
2023-04-26T21:45:00.856Z,25.39
2023-04-26T21:47:27.511Z,25.38
2023-04-26T21:49:53.878Z,25.35
2023-04-26T21:52:20.650Z,25.37
2023-04-26T21:54:47.051Z,25.36
2023-04-26T21:57:13.457Z,25.35
2023-04-26T21:59:42.105Z,25.34
2023-04-26T22:02:08.614Z,25.34
2023-04-26T22:04:35.045Z,25.33
2023-04-26T22:07:01.404Z,25.35
2023-04-26T22:09:27.765Z,25.35
2023-04-26T22:11:54.155Z,25.35
2023-04-26T22:14:20.945Z,25.36
2023-04-26T22:16:47.401Z,25.36
2023-04-26T22:19:14.237Z,25.38
2023-04-26T22:21:40.996Z,25.37
2023-04-26T22:24:07.764Z,25.36
2023-04-26T22:26:34.354Z,25.39
2023-04-26T22:29:00.913Z,25.41
2023-04-26T22:31:27.302Z,25.41
2023-04-26T22:33:53.754Z,25.39
2023-04-26T22:36:20.699Z,25.39
2023-04-26T22:38:47.109Z,25.39
2023-04-26T22:41:13.486Z,25.38
2023-04-26T22:43:41.476Z,25.37
2023-04-26T22:46:08.015Z,25.37
2023-04-26T22:48:34.409Z,25.38
2023-04-26T22:51:00.859Z,25.39
2023-04-26T22:53:27.455Z,25.39
2023-04-26T22:55:53.801Z,25.39
2023-04-26T22:58:23.782Z,25.41
2023-04-26T23:00:50.247Z,25.43
2023-04-26T23:03:16.943Z,25.43
2023-04-26T23:05:43.493Z,25.42
2023-04-26T23:08:09.848Z,25.41
2023-04-26T23:10:36.195Z,25.43
2023-04-26T23:13:02.577Z,25.45
2023-04-26T23:15:28.943Z,25.47
2023-04-26T23:17:55.390Z,25.46
2023-04-26T23:20:22.625Z,25.44
2023-04-26T23:22:49.026Z,25.37
2023-04-26T23:25:15.375Z,25.32
2023-04-26T23:27:42.106Z,25.25
2023-04-26T23:30:08.988Z,25.17
2023-04-26T23:32:35.524Z,24.99
2023-04-26T23:35:01.894Z,24.83
2023-04-26T23:37:29.002Z,24.83
2023-04-26T23:39:55.586Z,24.89
2023-04-26T23:42:22.102Z,24.92
2023-04-26T23:44:48.462Z,24.94
2023-04-26T23:47:14.970Z,24.92
2023-04-26T23:49:41.350Z,24.85
2023-04-26T23:52:07.777Z,24.77
2023-04-26T23:54:34.222Z,24.73
2023-04-26T23:57:00.953Z,24.62
2023-04-26T23:59:27.517Z,24.55
